Albany, Wisconsin
Current Conditions -  °F | °C
As of 1:35 AM on Saturday 25 Oct 2014 (Local Time) from KEFT Reporting Station
Moderate Fog Moderate Fog  
Wind Chill: 55°   Ceiling: 300
Heat Index: 55°   Visibility: 0.5mi
Dew Point: 55°   Wind: 13mph
Humidity: 100%   Direction: 270°W
Pressure: 29.9"   Gusts: 21mph
Location:  42.71°N, 89.44°W
Report Text: KEFT 250635Z AUTO 27011G18KT 1/2SM FG OVC003 13/13 A2990 RMK AO2
Loading
Personal Weather Stations






























Interactive Weather Map New forecast layout! Learn more

10-Day Weather Forecast

Advertisements
Track Severe Weather on mobile